sensor_id;sensor_type;location;lat;lon;timestamp;temperature;humidity
74224;SHT31;62585;49.706;18.216;2024-03-22T00:01:45;13.61;66.69
74224;SHT31;62585;49.706;18.216;2024-03-22T00:04:11;13.53;66.57
74224;SHT31;62585;49.706;18.216;2024-03-22T00:06:38;13.62;66.44
74224;SHT31;62585;49.706;18.216;2024-03-22T00:09:04;13.58;66.68
74224;SHT31;62585;49.706;18.216;2024-03-22T00:11:31;13.53;67.15
74224;SHT31;62585;49.706;18.216;2024-03-22T00:13:56;13.45;67.86
74224;SHT31;62585;49.706;18.216;2024-03-22T00:16:22;13.43;67.88
74224;SHT31;62585;49.706;18.216;2024-03-22T00:18:48;13.41;68.11
74224;SHT31;62585;49.706;18.216;2024-03-22T00:21:14;13.20;68.75
74224;SHT31;62585;49.706;18.216;2024-03-22T00:23:39;13.04;69.59
74224;SHT31;62585;49.706;18.216;2024-03-22T00:26:05;12.97;69.85
74224;SHT31;62585;49.706;18.216;2024-03-22T00:28:31;12.72;70.97
74224;SHT31;62585;49.706;18.216;2024-03-22T00:30:57;12.89;71.28
74224;SHT31;62585;49.706;18.216;2024-03-22T00:33:23;12.89;71.50
74224;SHT31;62585;49.706;18.216;2024-03-22T00:35:48;13.03;70.94
74224;SHT31;62585;49.706;18.216;2024-03-22T00:38:14;13.17;70.55
74224;SHT31;62585;49.706;18.216;2024-03-22T00:40:40;13.36;69.98
74224;SHT31;62585;49.706;18.216;2024-03-22T00:43:06;13.40;69.92
74224;SHT31;62585;49.706;18.216;2024-03-22T00:45:32;13.48;69.82
74224;SHT31;62585;49.706;18.216;2024-03-22T00:47:58;13.57;69.64
74224;SHT31;62585;49.706;18.216;2024-03-22T00:50:24;13.53;69.76
74224;SHT31;62585;49.706;18.216;2024-03-22T00:52:52;13.55;69.66
74224;SHT31;62585;49.706;18.216;2024-03-22T00:55:20;13.58;69.84
74224;SHT31;62585;49.706;18.216;2024-03-22T00:57:45;13.48;70.07
74224;SHT31;62585;49.706;18.216;2024-03-22T01:00:12;13.57;69.99
74224;SHT31;62585;49.706;18.216;2024-03-22T01:02:38;13.58;69.99
74224;SHT31;62585;49.706;18.216;2024-03-22T01:05:05;13.55;69.81
74224;SHT31;62585;49.706;18.216;2024-03-22T01:07:30;13.53;70.00
74224;SHT31;62585;49.706;18.216;2024-03-22T01:09:56;13.47;70.39
74224;SHT31;62585;49.706;18.216;2024-03-22T01:12:22;13.51;70.06
74224;SHT31;62585;49.706;18.216;2024-03-22T01:14:48;13.47;70.26
74224;SHT31;62585;49.706;18.216;2024-03-22T01:17:14;13.45;70.01
74224;SHT31;62585;49.706;18.216;2024-03-22T01:19:40;13.44;70.57
74224;SHT31;62585;49.706;18.216;2024-03-22T01:22:05;13.40;70.45
74224;SHT31;62585;49.706;18.216;2024-03-22T01:24:31;13.43;70.38
74224;SHT31;62585;49.706;18.216;2024-03-22T01:26:57;13.23;71.13
74224;SHT31;62585;49.706;18.216;2024-03-22T01:29:23;13.13;71.66
74224;SHT31;62585;49.706;18.216;2024-03-22T01:31:49;13.26;71.25
74224;SHT31;62585;49.706;18.216;2024-03-22T01:34:15;13.10;71.73
74224;SHT31;62585;49.706;18.216;2024-03-22T01:36:40;13.27;71.29
74224;SHT31;62585;49.706;18.216;2024-03-22T01:39:06;13.20;71.46
74224;SHT31;62585;49.706;18.216;2024-03-22T01:41:32;13.34;71.14
74224;SHT31;62585;49.706;18.216;2024-03-22T01:43:58;13.34;71.07
74224;SHT31;62585;49.706;18.216;2024-03-22T01:46:24;13.44;70.71
74224;SHT31;62585;49.706;18.216;2024-03-22T01:48:50;13.51;70.37
74224;SHT31;62585;49.706;18.216;2024-03-22T01:51:17;13.45;70.39
74224;SHT31;62585;49.706;18.216;2024-03-22T01:53:43;13.45;70.31
74224;SHT31;62585;49.706;18.216;2024-03-22T01:56:10;13.51;70.12
74224;SHT31;62585;49.706;18.216;2024-03-22T01:58:36;13.58;69.97
74224;SHT31;62585;49.706;18.216;2024-03-22T02:01:02;13.57;69.97
74224;SHT31;62585;49.706;18.216;2024-03-22T02:03:28;13.59;70.05
74224;SHT31;62585;49.706;18.216;2024-03-22T02:05:54;13.53;70.11
74224;SHT31;62585;49.706;18.216;2024-03-22T02:08:20;13.54;70.35
74224;SHT31;62585;49.706;18.216;2024-03-22T02:13:21;13.58;70.12
74224;SHT31;62585;49.706;18.216;2024-03-22T02:15:47;13.53;70.33
74224;SHT31;62585;49.706;18.216;2024-03-22T02:18:12;13.54;70.40
74224;SHT31;62585;49.706;18.216;2024-03-22T02:20:38;13.48;70.67
74224;SHT31;62585;49.706;18.216;2024-03-22T02:23:04;13.27;71.29
74224;SHT31;62585;49.706;18.216;2024-03-22T02:25:30;13.27;71.49
74224;SHT31;62585;49.706;18.216;2024-03-22T02:27:56;13.21;71.96
74224;SHT31;62585;49.706;18.216;2024-03-22T02:30:21;13.21;71.86
74224;SHT31;62585;49.706;18.216;2024-03-22T02:32:47;13.18;71.92
74224;SHT31;62585;49.706;18.216;2024-03-22T02:35:13;13.33;71.40
74224;SHT31;62585;49.706;18.216;2024-03-22T02:37:39;13.31;71.40
74224;SHT31;62585;49.706;18.216;2024-03-22T02:40:05;13.36;71.13
74224;SHT31;62585;49.706;18.216;2024-03-22T02:42:31;13.37;71.11
74224;SHT31;62585;49.706;18.216;2024-03-22T02:44:57;13.41;71.07
74224;SHT31;62585;49.706;18.216;2024-03-22T02:47:23;13.41;71.00
74224;SHT31;62585;49.706;18.216;2024-03-22T02:49:49;13.37;70.97
74224;SHT31;62585;49.706;18.216;2024-03-22T02:52:14;13.33;71.14
74224;SHT31;62585;49.706;18.216;2024-03-22T02:54:41;13.36;71.29
74224;SHT31;62585;49.706;18.216;2024-03-22T02:57:06;13.36;71.14
74224;SHT31;62585;49.706;18.216;2024-03-22T02:59:32;13.38;71.07
74224;SHT31;62585;49.706;18.216;2024-03-22T03:01:58;13.30;71.48
74224;SHT31;62585;49.706;18.216;2024-03-22T03:04:24;13.17;71.83
74224;SHT31;62585;49.706;18.216;2024-03-22T03:06:49;13.18;71.85
74224;SHT31;62585;49.706;18.216;2024-03-22T03:09:15;13.18;71.37
74224;SHT31;62585;49.706;18.216;2024-03-22T03:11:41;13.17;71.27
74224;SHT31;62585;49.706;18.216;2024-03-22T03:14:07;13.11;71.12
74224;SHT31;62585;49.706;18.216;2024-03-22T03:16:33;13.09;71.16
74224;SHT31;62585;49.706;18.216;2024-03-22T03:18:59;13.07;71.11
74224;SHT31;62585;49.706;18.216;2024-03-22T03:21:25;13.10;70.81
74224;SHT31;62585;49.706;18.216;2024-03-22T03:23:51;13.14;70.43
74224;SHT31;62585;49.706;18.216;2024-03-22T03:26:17;13.11;69.95
74224;SHT31;62585;49.706;18.216;2024-03-22T03:28:43;13.20;69.92
74224;SHT31;62585;49.706;18.216;2024-03-22T03:31:08;13.21;69.78
74224;SHT31;62585;49.706;18.216;2024-03-22T03:33:34;13.21;69.72
74224;SHT31;62585;49.706;18.216;2024-03-22T03:36:00;13.24;69.70
74224;SHT31;62585;49.706;18.216;2024-03-22T03:38:26;13.30;69.56
74224;SHT31;62585;49.706;18.216;2024-03-22T03:40:52;13.20;69.61
74224;SHT31;62585;49.706;18.216;2024-03-22T03:43:17;13.24;69.54
74224;SHT31;62585;49.706;18.216;2024-03-22T03:45:43;13.14;69.99
74224;SHT31;62585;49.706;18.216;2024-03-22T03:48:09;13.16;69.75
74224;SHT31;62585;49.706;18.216;2024-03-22T03:50:35;13.23;69.63
74224;SHT31;62585;49.706;18.216;2024-03-22T03:53:01;13.18;69.77
74224;SHT31;62585;49.706;18.216;2024-03-22T03:55:26;13.14;69.88
74224;SHT31;62585;49.706;18.216;2024-03-22T03:57:52;13.10;70.07
74224;SHT31;62585;49.706;18.216;2024-03-22T04:00:19;13.07;70.20
74224;SHT31;62585;49.706;18.216;2024-03-22T04:02:45;13.11;69.86
74224;SHT31;62585;49.706;18.216;2024-03-22T04:05:11;13.11;69.73
74224;SHT31;62585;49.706;18.216;2024-03-22T04:07:37;12.96;70.06
74224;SHT31;62585;49.706;18.216;2024-03-22T04:10:05;12.96;70.24
74224;SHT31;62585;49.706;18.216;2024-03-22T04:12:31;13.11;69.83
74224;SHT31;62585;49.706;18.216;2024-03-22T04:14:57;13.16;69.61
74224;SHT31;62585;49.706;18.216;2024-03-22T04:17:23;13.14;69.72
74224;SHT31;62585;49.706;18.216;2024-03-22T04:19:52;13.10;70.08
74224;SHT31;62585;49.706;18.216;2024-03-22T04:22:18;12.96;70.86
74224;SHT31;62585;49.706;18.216;2024-03-22T04:24:44;13.00;70.96
74224;SHT31;62585;49.706;18.216;2024-03-22T04:27:10;13.04;70.50
74224;SHT31;62585;49.706;18.216;2024-03-22T04:29:36;12.96;70.49
74224;SHT31;62585;49.706;18.216;2024-03-22T04:32:02;12.93;70.53
74224;SHT31;62585;49.706;18.216;2024-03-22T04:34:27;12.83;71.12
74224;SHT31;62585;49.706;18.216;2024-03-22T04:36:53;12.83;71.11
74224;SHT31;62585;49.706;18.216;2024-03-22T04:39:19;12.80;71.09
74224;SHT31;62585;49.706;18.216;2024-03-22T04:41:45;12.76;71.18
74224;SHT31;62585;49.706;18.216;2024-03-22T04:44:11;12.75;71.16
74224;SHT31;62585;49.706;18.216;2024-03-22T04:46:37;12.80;71.17
74224;SHT31;62585;49.706;18.216;2024-03-22T04:49:03;12.86;70.97
74224;SHT31;62585;49.706;18.216;2024-03-22T04:51:29;12.95;70.95
74224;SHT31;62585;49.706;18.216;2024-03-22T04:53:54;12.89;71.21
74224;SHT31;62585;49.706;18.216;2024-03-22T04:56:20;12.76;71.44
74224;SHT31;62585;49.706;18.216;2024-03-22T04:58:46;12.79;71.17
74224;SHT31;62585;49.706;18.216;2024-03-22T05:01:12;12.68;71.37
74224;SHT31;62585;49.706;18.216;2024-03-22T05:03:38;12.63;71.61
74224;SHT31;62585;49.706;18.216;2024-03-22T05:06:04;12.63;71.36
74224;SHT31;62585;49.706;18.216;2024-03-22T05:08:31;12.65;71.33
74224;SHT31;62585;49.706;18.216;2024-03-22T05:10:57;12.75;71.04
74224;SHT31;62585;49.706;18.216;2024-03-22T05:13:23;12.75;70.93
74224;SHT31;62585;49.706;18.216;2024-03-22T05:15:49;12.56;71.72
74224;SHT31;62585;49.706;18.216;2024-03-22T05:18:15;12.56;71.89
74224;SHT31;62585;49.706;18.216;2024-03-22T05:20:40;12.35;72.88
74224;SHT31;62585;49.706;18.216;2024-03-22T05:23:06;12.10;73.61
74224;SHT31;62585;49.706;18.216;2024-03-22T05:25:32;12.11;73.64
74224;SHT31;62585;49.706;18.216;2024-03-22T05:27:58;12.11;73.40
74224;SHT31;62585;49.706;18.216;2024-03-22T05:30:24;12.18;73.75
74224;SHT31;62585;49.706;18.216;2024-03-22T05:32:49;12.30;73.54
74224;SHT31;62585;49.706;18.216;2024-03-22T05:35:16;11.97;74.44
74224;SHT31;62585;49.706;18.216;2024-03-22T05:37:41;12.00;74.47
74224;SHT31;62585;49.706;18.216;2024-03-22T05:40:08;12.05;74.72
74224;SHT31;62585;49.706;18.216;2024-03-22T05:42:34;12.07;74.91
74224;SHT31;62585;49.706;18.216;2024-03-22T05:45:00;12.10;74.80
74224;SHT31;62585;49.706;18.216;2024-03-22T05:47:26;12.04;74.76
74224;SHT31;62585;49.706;18.216;2024-03-22T05:49:52;11.80;75.43
74224;SHT31;62585;49.706;18.216;2024-03-22T05:52:18;11.94;75.37
74224;SHT31;62585;49.706;18.216;2024-03-22T05:54:44;12.07;75.10
74224;SHT31;62585;49.706;18.216;2024-03-22T05:57:11;11.86;75.42
74224;SHT31;62585;49.706;18.216;2024-03-22T05:59:37;11.93;74.82
74224;SHT31;62585;49.706;18.216;2024-03-22T06:02:03;12.14;74.27
74224;SHT31;62585;49.706;18.216;2024-03-22T06:04:29;12.10;74.53
74224;SHT31;62585;49.706;18.216;2024-03-22T06:06:54;12.16;74.24
74224;SHT31;62585;49.706;18.216;2024-03-22T06:09:20;12.14;74.19
74224;SHT31;62585;49.706;18.216;2024-03-22T06:11:50;12.13;74.46
74224;SHT31;62585;49.706;18.216;2024-03-22T06:14:17;12.24;73.69
74224;SHT31;62585;49.706;18.216;2024-03-22T06:16:43;12.20;74.51
74224;SHT31;62585;49.706;18.216;2024-03-22T06:19:08;12.37;73.78
74224;SHT31;62585;49.706;18.216;2024-03-22T06:21:34;12.31;73.96
74224;SHT31;62585;49.706;18.216;2024-03-22T06:24:01;12.40;73.79
74224;SHT31;62585;49.706;18.216;2024-03-22T06:26:26;12.48;72.98
74224;SHT31;62585;49.706;18.216;2024-03-22T06:28:52;12.23;73.15
74224;SHT31;62585;49.706;18.216;2024-03-22T06:31:18;12.27;73.40
74224;SHT31;62585;49.706;18.216;2024-03-22T06:33:44;12.18;73.77
74224;SHT31;62585;49.706;18.216;2024-03-22T06:36:10;12.35;73.33
74224;SHT31;62585;49.706;18.216;2024-03-22T06:38:36;12.04;73.29
74224;SHT31;62585;49.706;18.216;2024-03-22T06:41:01;11.90;73.97
74224;SHT31;62585;49.706;18.216;2024-03-22T06:43:27;11.75;74.53
74224;SHT31;62585;49.706;18.216;2024-03-22T06:45:53;11.75;74.92
74224;SHT31;62585;49.706;18.216;2024-03-22T06:48:21;11.80;74.70
74224;SHT31;62585;49.706;18.216;2024-03-22T06:50:47;11.75;74.22
74224;SHT31;62585;49.706;18.216;2024-03-22T06:53:13;11.70;74.18
74224;SHT31;62585;49.706;18.216;2024-03-22T06:55:39;11.49;74.94
74224;SHT31;62585;49.706;18.216;2024-03-22T06:58:05;11.48;74.31
74224;SHT31;62585;49.706;18.216;2024-03-22T07:00:31;11.38;74.55
74224;SHT31;62585;49.706;18.216;2024-03-22T07:03:01;11.46;74.47
74224;SHT31;62585;49.706;18.216;2024-03-22T07:05:28;11.56;73.71
74224;SHT31;62585;49.706;18.216;2024-03-22T07:07:55;11.43;73.71
74224;SHT31;62585;49.706;18.216;2024-03-22T07:10:23;11.80;73.28
74224;SHT31;62585;49.706;18.216;2024-03-22T07:12:56;11.43;73.62
74224;SHT31;62585;49.706;18.216;2024-03-22T07:15:23;11.70;73.61
74224;SHT31;62585;49.706;18.216;2024-03-22T07:17:50;12.14;72.06
74224;SHT31;62585;49.706;18.216;2024-03-22T07:20:16;11.55;71.36
74224;SHT31;62585;49.706;18.216;2024-03-22T07:22:42;11.35;71.94
74224;SHT31;62585;49.706;18.216;2024-03-22T07:25:08;11.45;70.70
74224;SHT31;62585;49.706;18.216;2024-03-22T07:27:36;11.43;70.03
74224;SHT31;62585;49.706;18.216;2024-03-22T07:30:03;11.34;70.79
74224;SHT31;62585;49.706;18.216;2024-03-22T07:32:29;11.28;70.41
74224;SHT31;62585;49.706;18.216;2024-03-22T07:34:55;11.38;70.40
74224;SHT31;62585;49.706;18.216;2024-03-22T07:37:21;11.52;70.46
74224;SHT31;62585;49.706;18.216;2024-03-22T07:39:47;11.45;69.51
74224;SHT31;62585;49.706;18.216;2024-03-22T07:42:13;11.49;69.86
74224;SHT31;62585;49.706;18.216;2024-03-22T07:44:39;11.61;69.29
74224;SHT31;62585;49.706;18.216;2024-03-22T07:47:05;11.86;69.09
74224;SHT31;62585;49.706;18.216;2024-03-22T07:49:30;12.04;67.88
74224;SHT31;62585;49.706;18.216;2024-03-22T07:51:58;12.10;67.03
74224;SHT31;62585;49.706;18.216;2024-03-22T07:54:24;12.35;66.64
74224;SHT31;62585;49.706;18.216;2024-03-22T07:56:50;12.34;66.82
74224;SHT31;62585;49.706;18.216;2024-03-22T07:59:15;11.91;67.73
74224;SHT31;62585;49.706;18.216;2024-03-22T08:01:41;11.63;67.82
74224;SHT31;62585;49.706;18.216;2024-03-22T08:04:07;11.66;67.99
74224;SHT31;62585;49.706;18.216;2024-03-22T08:06:33;11.61;68.34
74224;SHT31;62585;49.706;18.216;2024-03-22T08:08:59;11.48;68.94
74224;SHT31;62585;49.706;18.216;2024-03-22T08:11:27;11.54;68.25
74224;SHT31;62585;49.706;18.216;2024-03-22T08:13:52;11.52;68.12
74224;SHT31;62585;49.706;18.216;2024-03-22T08:16:19;11.65;67.50
74224;SHT31;62585;49.706;18.216;2024-03-22T08:18:45;11.80;67.20
74224;SHT31;62585;49.706;18.216;2024-03-22T08:21:11;11.82;67.02
74224;SHT31;62585;49.706;18.216;2024-03-22T08:23:36;11.54;67.17
74224;SHT31;62585;49.706;18.216;2024-03-22T08:26:02;11.72;67.00
74224;SHT31;62585;49.706;18.216;2024-03-22T08:28:29;11.98;66.42
74224;SHT31;62585;49.706;18.216;2024-03-22T08:30:55;12.34;65.64
74224;SHT31;62585;49.706;18.216;2024-03-22T08:33:23;12.42;65.97
74224;SHT31;62585;49.706;18.216;2024-03-22T08:35:52;12.07;65.72
74224;SHT31;62585;49.706;18.216;2024-03-22T08:38:18;11.80;66.00
74224;SHT31;62585;49.706;18.216;2024-03-22T08:40:44;11.76;66.53
74224;SHT31;62585;49.706;18.216;2024-03-22T08:43:10;11.75;66.64
74224;SHT31;62585;49.706;18.216;2024-03-22T08:45:36;11.61;67.08
74224;SHT31;62585;49.706;18.216;2024-03-22T08:48:01;11.52;67.18
74224;SHT31;62585;49.706;18.216;2024-03-22T08:50:28;11.72;67.61
74224;SHT31;62585;49.706;18.216;2024-03-22T08:52:54;12.17;65.99
74224;SHT31;62585;49.706;18.216;2024-03-22T08:55:20;12.23;64.85
74224;SHT31;62585;49.706;18.216;2024-03-22T08:57:45;12.17;65.09
74224;SHT31;62585;49.706;18.216;2024-03-22T09:00:12;12.24;65.28
74224;SHT31;62585;49.706;18.216;2024-03-22T09:02:37;12.00;65.43
74224;SHT31;62585;49.706;18.216;2024-03-22T09:05:05;11.69;65.84
74224;SHT31;62585;49.706;18.216;2024-03-22T09:07:31;11.66;66.72
74224;SHT31;62585;49.706;18.216;2024-03-22T09:09:57;12.11;65.62
74224;SHT31;62585;49.706;18.216;2024-03-22T09:12:22;12.07;65.62
74224;SHT31;62585;49.706;18.216;2024-03-22T09:14:49;12.20;65.61
74224;SHT31;62585;49.706;18.216;2024-03-22T09:17:14;12.41;64.83
74224;SHT31;62585;49.706;18.216;2024-03-22T09:19:40;12.49;64.25
74224;SHT31;62585;49.706;18.216;2024-03-22T09:22:06;12.62;64.01
74224;SHT31;62585;49.706;18.216;2024-03-22T09:24:32;12.45;64.46
74224;SHT31;62585;49.706;18.216;2024-03-22T09:26:58;12.70;65.03
74224;SHT31;62585;49.706;18.216;2024-03-22T09:29:24;12.82;64.54
74224;SHT31;62585;49.706;18.216;2024-03-22T09:31:50;13.07;63.88
74224;SHT31;62585;49.706;18.216;2024-03-22T09:34:19;13.04;64.30
74224;SHT31;62585;49.706;18.216;2024-03-22T09:36:45;13.16;63.80
74224;SHT31;62585;49.706;18.216;2024-03-22T09:39:11;12.93;63.41
74224;SHT31;62585;49.706;18.216;2024-03-22T09:41:42;13.21;63.47
74224;SHT31;62585;49.706;18.216;2024-03-22T09:44:12;12.96;63.21
74224;SHT31;62585;49.706;18.216;2024-03-22T09:46:40;12.69;63.84
74224;SHT31;62585;49.706;18.216;2024-03-22T09:49:09;12.55;64.41
74224;SHT31;62585;49.706;18.216;2024-03-22T09:51:37;12.51;65.07
74224;SHT31;62585;49.706;18.216;2024-03-22T09:54:03;12.69;64.84
74224;SHT31;62585;49.706;18.216;2024-03-22T09:56:30;12.41;64.79
74224;SHT31;62585;49.706;18.216;2024-03-22T09:58:57;12.32;65.46
74224;SHT31;62585;49.706;18.216;2024-03-22T10:01:26;12.28;65.24
74224;SHT31;62585;49.706;18.216;2024-03-22T10:03:53;12.20;66.24
74224;SHT31;62585;49.706;18.216;2024-03-22T10:06:20;12.04;66.64
74224;SHT31;62585;49.706;18.216;2024-03-22T10:08:46;12.27;65.76
74224;SHT31;62585;49.706;18.216;2024-03-22T10:11:12;12.69;64.90
74224;SHT31;62585;49.706;18.216;2024-03-22T10:13:38;12.58;65.12
74224;SHT31;62585;49.706;18.216;2024-03-22T10:16:04;12.40;65.81
74224;SHT31;62585;49.706;18.216;2024-03-22T10:18:32;12.42;64.88
74224;SHT31;62585;49.706;18.216;2024-03-22T10:21:05;12.44;65.32
74224;SHT31;62585;49.706;18.216;2024-03-22T10:23:31;12.45;65.71
74224;SHT31;62585;49.706;18.216;2024-03-22T10:25:59;12.70;64.91
74224;SHT31;62585;49.706;18.216;2024-03-22T10:28:26;13.00;63.74
74224;SHT31;62585;49.706;18.216;2024-03-22T10:30:52;13.00;63.16
74224;SHT31;62585;49.706;18.216;2024-03-22T10:33:22;13.24;63.07
74224;SHT31;62585;49.706;18.216;2024-03-22T10:35:53;13.10;63.75
74224;SHT31;62585;49.706;18.216;2024-03-22T10:38:20;12.95;63.45
74224;SHT31;62585;49.706;18.216;2024-03-22T10:40:47;12.65;65.03
74224;SHT31;62585;49.706;18.216;2024-03-22T10:43:13;12.55;64.85
74224;SHT31;62585;49.706;18.216;2024-03-22T10:45:40;12.41;64.68
74224;SHT31;62585;49.706;18.216;2024-03-22T10:48:10;12.55;65.21
74224;SHT31;62585;49.706;18.216;2024-03-22T10:50:40;12.58;65.41
74224;SHT31;62585;49.706;18.216;2024-03-22T10:53:12;12.42;64.39
74224;SHT31;62585;49.706;18.216;2024-03-22T10:55:42;12.97;64.19
74224;SHT31;62585;49.706;18.216;2024-03-22T10:58:21;13.02;64.02
74224;SHT31;62585;49.706;18.216;2024-03-22T11:00:47;12.99;63.56
74224;SHT31;62585;49.706;18.216;2024-03-22T11:03:13;12.68;63.90
74224;SHT31;62585;49.706;18.216;2024-03-22T11:05:49;12.63;64.00
74224;SHT31;62585;49.706;18.216;2024-03-22T11:08:29;12.63;63.68
74224;SHT31;62585;49.706;18.216;2024-03-22T11:10:56;12.78;63.45
74224;SHT31;62585;49.706;18.216;2024-03-22T11:13:23;12.93;63.97
74224;SHT31;62585;49.706;18.216;2024-03-22T11:15:49;12.88;64.42
74224;SHT31;62585;49.706;18.216;2024-03-22T11:18:16;12.53;64.28
74224;SHT31;62585;49.706;18.216;2024-03-22T11:20:42;12.78;64.74
74224;SHT31;62585;49.706;18.216;2024-03-22T11:23:09;12.86;63.46
74224;SHT31;62585;49.706;18.216;2024-03-22T11:25:35;12.65;64.30
74224;SHT31;62585;49.706;18.216;2024-03-22T11:28:01;12.75;64.79
74224;SHT31;62585;49.706;18.216;2024-03-22T11:30:32;12.86;64.79
74224;SHT31;62585;49.706;18.216;2024-03-22T11:33:02;13.00;63.76
74224;SHT31;62585;49.706;18.216;2024-03-22T11:35:28;12.92;63.15
74224;SHT31;62585;49.706;18.216;2024-03-22T11:37:53;13.04;64.29
74224;SHT31;62585;49.706;18.216;2024-03-22T11:40:19;13.07;62.66
74224;SHT31;62585;49.706;18.216;2024-03-22T11:42:48;13.03;63.38
74224;SHT31;62585;49.706;18.216;2024-03-22T11:45:15;13.14;63.21
74224;SHT31;62585;49.706;18.216;2024-03-22T11:47:44;13.02;63.17
74224;SHT31;62585;49.706;18.216;2024-03-22T11:50:12;13.00;62.52
74224;SHT31;62585;49.706;18.216;2024-03-22T11:52:41;13.34;62.37
74224;SHT31;62585;49.706;18.216;2024-03-22T11:55:35;13.66;61.76
74224;SHT31;62585;49.706;18.216;2024-03-22T11:58:37;13.86;61.68
74224;SHT31;62585;49.706;18.216;2024-03-22T12:01:03;13.65;61.49
74224;SHT31;62585;49.706;18.216;2024-03-22T12:03:29;13.64;61.67
74224;SHT31;62585;49.706;18.216;2024-03-22T12:05:55;13.62;61.57
74224;SHT31;62585;49.706;18.216;2024-03-22T12:08:23;13.23;62.20
74224;SHT31;62585;49.706;18.216;2024-03-22T12:10:49;13.07;62.53
74224;SHT31;62585;49.706;18.216;2024-03-22T12:13:15;13.14;62.68
74224;SHT31;62585;49.706;18.216;2024-03-22T12:15:41;13.47;62.86
74224;SHT31;62585;49.706;18.216;2024-03-22T12:18:07;13.58;62.17
74224;SHT31;62585;49.706;18.216;2024-03-22T12:20:32;13.71;61.53
74224;SHT31;62585;49.706;18.216;2024-03-22T12:22:58;13.98;61.92
74224;SHT31;62585;49.706;18.216;2024-03-22T12:25:24;13.85;60.71
74224;SHT31;62585;49.706;18.216;2024-03-22T12:27:50;13.89;61.58
74224;SHT31;62585;49.706;18.216;2024-03-22T12:30:16;13.78;62.15
74224;SHT31;62585;49.706;18.216;2024-03-22T12:32:42;13.57;61.54
74224;SHT31;62585;49.706;18.216;2024-03-22T12:35:08;13.71;61.14
74224;SHT31;62585;49.706;18.216;2024-03-22T12:37:34;13.47;61.96
74224;SHT31;62585;49.706;18.216;2024-03-22T12:40:01;13.47;62.14
74224;SHT31;62585;49.706;18.216;2024-03-22T12:42:28;13.21;62.68
74224;SHT31;62585;49.706;18.216;2024-03-22T12:44:54;13.14;63.15
74224;SHT31;62585;49.706;18.216;2024-03-22T12:47:20;13.06;63.67
74224;SHT31;62585;49.706;18.216;2024-03-22T12:49:45;13.17;64.05
74224;SHT31;62585;49.706;18.216;2024-03-22T12:52:11;13.06;64.82
74224;SHT31;62585;49.706;18.216;2024-03-22T12:54:37;13.38;64.79
74224;SHT31;62585;49.706;18.216;2024-03-22T12:57:03;13.16;63.93
74224;SHT31;62585;49.706;18.216;2024-03-22T12:59:29;13.23;63.44
74224;SHT31;62585;49.706;18.216;2024-03-22T13:01:55;13.06;63.59
74224;SHT31;62585;49.706;18.216;2024-03-22T13:04:20;13.11;63.04
74224;SHT31;62585;49.706;18.216;2024-03-22T13:06:46;13.40;63.36
74224;SHT31;62585;49.706;18.216;2024-03-22T13:09:12;13.65;62.54
74224;SHT31;62585;49.706;18.216;2024-03-22T13:11:38;13.64;62.60
74224;SHT31;62585;49.706;18.216;2024-03-22T13:14:06;13.76;60.22
74224;SHT31;62585;49.706;18.216;2024-03-22T13:16:32;13.72;60.53
74224;SHT31;62585;49.706;18.216;2024-03-22T13:18:58;13.71;60.29
74224;SHT31;62585;49.706;18.216;2024-03-22T13:21:24;13.90;60.73
74224;SHT31;62585;49.706;18.216;2024-03-22T13:23:50;13.87;60.14
74224;SHT31;62585;49.706;18.216;2024-03-22T13:26:16;13.65;59.32
74224;SHT31;62585;49.706;18.216;2024-03-22T13:28:42;13.82;59.90
74224;SHT31;62585;49.706;18.216;2024-03-22T13:31:09;13.68;60.42
74224;SHT31;62585;49.706;18.216;2024-03-22T13:33:35;13.57;59.96
74224;SHT31;62585;49.706;18.216;2024-03-22T13:36:02;13.71;59.18
74224;SHT31;62585;49.706;18.216;2024-03-22T13:38:28;13.69;59.98
74224;SHT31;62585;49.706;18.216;2024-03-22T13:40:57;13.57;59.40
74224;SHT31;62585;49.706;18.216;2024-03-22T13:43:25;13.82;59.02
74224;SHT31;62585;49.706;18.216;2024-03-22T13:45:53;13.83;58.59
74224;SHT31;62585;49.706;18.216;2024-03-22T13:48:22;13.99;58.18
74224;SHT31;62585;49.706;18.216;2024-03-22T13:50:56;14.44;57.18
74224;SHT31;62585;49.706;18.216;2024-03-22T13:53:22;14.61;56.13
74224;SHT31;62585;49.706;18.216;2024-03-22T13:55:48;14.65;56.35
74224;SHT31;62585;49.706;18.216;2024-03-22T13:58:14;14.56;55.64
74224;SHT31;62585;49.706;18.216;2024-03-22T14:00:41;14.61;54.97
74224;SHT31;62585;49.706;18.216;2024-03-22T14:03:07;14.23;55.02
74224;SHT31;62585;49.706;18.216;2024-03-22T14:05:33;14.23;55.93
74224;SHT31;62585;49.706;18.216;2024-03-22T14:07:59;14.40;55.46
74224;SHT31;62585;49.706;18.216;2024-03-22T14:10:25;14.51;54.45
74224;SHT31;62585;49.706;18.216;2024-03-22T14:12:53;14.45;54.40
74224;SHT31;62585;49.706;18.216;2024-03-22T14:15:19;14.41;54.17
74224;SHT31;62585;49.706;18.216;2024-03-22T14:17:45;14.38;54.84
74224;SHT31;62585;49.706;18.216;2024-03-22T14:20:11;14.27;54.87
74224;SHT31;62585;49.706;18.216;2024-03-22T14:22:40;14.52;53.93
74224;SHT31;62585;49.706;18.216;2024-03-22T14:25:07;14.48;54.58
74224;SHT31;62585;49.706;18.216;2024-03-22T14:27:33;14.37;54.61
74224;SHT31;62585;49.706;18.216;2024-03-22T14:30:01;14.43;55.03
74224;SHT31;62585;49.706;18.216;2024-03-22T14:32:30;14.60;54.10
74224;SHT31;62585;49.706;18.216;2024-03-22T14:34:56;14.40;54.49
74224;SHT31;62585;49.706;18.216;2024-03-22T14:37:22;14.17;54.19
74224;SHT31;62585;49.706;18.216;2024-03-22T14:39:48;14.09;54.32
74224;SHT31;62585;49.706;18.216;2024-03-22T14:42:14;14.05;54.25
74224;SHT31;62585;49.706;18.216;2024-03-22T14:44:39;14.33;53.83
74224;SHT31;62585;49.706;18.216;2024-03-22T14:47:06;14.17;53.61
74224;SHT31;62585;49.706;18.216;2024-03-22T14:49:32;14.36;54.39
74224;SHT31;62585;49.706;18.216;2024-03-22T14:51:57;14.13;53.97
74224;SHT31;62585;49.706;18.216;2024-03-22T14:54:23;14.24;53.92
74224;SHT31;62585;49.706;18.216;2024-03-22T14:56:49;14.26;54.61
74224;SHT31;62585;49.706;18.216;2024-03-22T14:59:14;14.33;54.53
74224;SHT31;62585;49.706;18.216;2024-03-22T15:01:40;14.26;54.80
74224;SHT31;62585;49.706;18.216;2024-03-22T15:04:06;14.30;54.73
74224;SHT31;62585;49.706;18.216;2024-03-22T15:06:33;14.40;54.72
74224;SHT31;62585;49.706;18.216;2024-03-22T15:08:59;14.48;54.40
74224;SHT31;62585;49.706;18.216;2024-03-22T15:11:38;14.38;54.88
74224;SHT31;62585;49.706;18.216;2024-03-22T15:14:27;14.43;55.59